Time;durP1;ratioP1;P1;durP2;ratioP2;P2;SDS_P1;SDS_P2;PMS_P1;PMS_P2;Temp;Humidity;BMP_temperature;BMP_pressure;BME280_temperature;BME280_humidity;BME280_pressure;Samples;Min_cycle;Max_cycle;Signal;HPM_P1;HPM_P2
2021/10/27 00:01:23;;;;;;;14.40;6.93;;;;;;;3.29;100.00;95822.31;5109275;27;20048;-66
2021/10/27 00:03:49;;;;;;;16.10;7.43;;;;;;;3.24;100.00;95810.75;5110406;27;20428;-65
2021/10/27 00:06:16;;;;;;;15.75;7.03;;;;;;;3.24;100.00;95809.91;5115890;27;20812;-66
2021/10/27 00:08:44;;;;;;;13.35;7.00;;;;;;;3.39;100.00;95817.81;5108563;27;20035;-66
2021/10/27 00:11:11;;;;;;;10.23;6.15;;;;;;;3.27;100.00;95813.97;5114285;27;20397;-65
2021/10/27 00:13:38;;;;;;;16.73;7.68;;;;;;;3.34;100.00;95809.78;5107454;27;20035;-66
2021/10/27 00:16:06;;;;;;;14.60;6.95;;;;;;;3.04;100.00;95799.13;5111244;27;20051;-65
2021/10/27 00:18:33;;;;;;;10.65;6.13;;;;;;;3.22;100.00;95815.25;5111829;27;20764;-65
2021/10/27 00:21:00;;;;;;;14.73;7.22;;;;;;;3.29;100.00;95817.16;5112867;27;20088;-66
2021/10/27 00:23:27;;;;;;;12.57;6.93;;;;;;;3.22;100.00;95802.38;5111572;27;20548;-65
2021/10/27 00:25:53;;;;;;;10.18;5.90;;;;;;;3.32;100.00;95806.56;5111281;27;20054;-66
2021/10/27 00:28:20;;;;;;;13.32;6.45;;;;;;;3.32;100.00;95807.34;5114850;27;20043;-65
2021/10/27 00:30:47;;;;;;;12.73;6.38;;;;;;;3.00;100.00;95803.00;5114054;27;20111;-66
2021/10/27 00:33:14;;;;;;;14.98;7.63;;;;;;;2.94;100.00;95783.84;5108310;27;20042;-66
2021/10/27 00:35:40;;;;;;;12.40;6.30;;;;;;;3.00;100.00;95803.00;5091243;27;20047;-66
2021/10/27 00:38:10;;;;;;;13.35;6.53;;;;;;;2.97;100.00;95805.88;5110509;27;20397;-65
2021/10/27 00:40:37;;;;;;;14.25;6.65;;;;;;;3.02;100.00;95790.75;5108865;27;20081;-65
2021/10/27 00:43:03;;;;;;;12.68;6.70;;;;;;;3.10;100.00;95801.09;5108405;27;20044;-67
2021/10/27 00:45:30;;;;;;;14.60;7.57;;;;;;;3.07;100.00;95803.97;5113560;27;20034;-66
2021/10/27 00:47:57;;;;;;;12.68;6.07;;;;;;;2.91;100.00;95773.06;5110389;27;20035;-66
2021/10/27 00:50:24;;;;;;;11.63;7.05;;;;;;;2.90;100.00;95779.16;5108438;27;20100;-66
2021/10/27 00:52:52;;;;;;;12.00;5.43;;;;;;;2.83;100.00;95782.41;5112719;27;20118;-66
2021/10/27 00:55:19;;;;;;;13.02;6.57;;;;;;;2.87;100.00;95775.97;5109069;27;20047;-66
2021/10/27 00:57:47;;;;;;;11.82;6.65;;;;;;;2.95;100.00;95790.59;5109588;27;20039;-66
2021/10/27 01:00:14;;;;;;;14.45;5.75;;;;;;;3.04;100.00;95788.84;5109768;27;20096;-66
2021/10/27 01:02:41;;;;;;;10.82;6.45;;;;;;;3.10;100.00;95788.22;5108043;27;20044;-65
2021/10/27 01:05:09;;;;;;;9.32;5.68;;;;;;;3.14;100.00;95784.34;5107441;27;20367;-66
2021/10/27 01:07:36;;;;;;;10.88;6.28;;;;;;;3.10;100.00;95783.06;5093056;27;20531;-66
2021/10/27 01:10:04;;;;;;;10.88;5.57;;;;;;;3.16;100.00;95787.56;5112455;27;20040;-66
2021/10/27 01:12:31;;;;;;;11.90;6.28;;;;;;;3.18;100.00;95783.03;5112565;27;20060;-66
2021/10/27 01:14:57;;;;;;;12.40;6.22;;;;;;;3.18;100.00;95775.31;5107522;27;20031;-66
2021/10/27 01:17:24;;;;;;;10.50;5.72;;;;;;;3.29;100.00;95781.91;5107170;27;20047;-67
2021/10/27 01:19:54;;;;;;;10.18;5.10;;;;;;;3.28;100.00;95769.19;5111559;27;20051;-66
2021/10/27 01:22:40;;;;;;;9.63;5.53;;;;;;;3.39;100.00;95781.75;5106679;27;20490;-66
2021/10/27 01:25:10;;;;;;;13.45;6.75;;;;;;;3.45;100.00;95786.25;5110824;27;20844;-66
2021/10/27 01:27:42;;;;;;;11.40;7.25;;;;;;;3.49;100.00;95782.38;5111093;27;20039;-67
2021/10/27 01:30:15;;;;;;;14.05;8.63;;;;;;;3.54;100.00;95790.44;5106039;27;20458;-66
2021/10/27 01:32:43;;;;;;;11.30;6.45;;;;;;;3.64;100.00;95792.84;5109238;27;20088;-66
2021/10/27 01:35:11;;;;;;;13.90;7.72;;;;;;;3.62;100.00;95787.06;5106059;27;20043;-66
2021/10/27 01:37:39;;;;;;;13.23;7.18;;;;;;;3.69;100.00;95782.03;5105912;27;20047;-66
2021/10/27 01:40:08;;;;;;;19.92;10.48;;;;;;;3.77;100.00;95789.75;5110394;27;20423;-66
2021/10/27 01:42:35;;;;;;;22.85;10.85;;;;;;;3.82;100.00;95792.66;5108536;27;20032;-66
2021/10/27 01:45:04;;;;;;;28.67;12.52;;;;;;;3.90;100.00;95795.19;5110516;27;20035;-65
2021/10/27 01:47:33;;;;;;;16.10;8.18;;;;;;;3.85;100.00;95792.28;5088196;28;20039;-66
2021/10/27 01:50:00;;;;;;;11.98;7.28;;;;;;;3.78;100.00;95796.50;5106232;27;20048;-65
2021/10/27 01:52:27;;;;;;;13.38;6.55;;;;;;;3.62;100.00;95785.28;5105374;27;20120;-66
2021/10/27 01:54:54;;;;;;;11.13;7.07;;;;;;;3.60;100.00;95791.53;5109765;27;20043;-65
2021/10/27 01:57:20;;;;;;;16.33;8.68;;;;;;;3.56;100.00;95788.50;5108507;27;20099;-66
2021/10/27 01:59:47;;;;;;;14.13;7.22;;;;;;;3.62;100.00;95794.78;5109085;27;20065;-66
2021/10/27 02:02:14;;;;;;;15.45;7.80;;;;;;;3.52;100.00;95792.38;5088859;28;20488;-65
2021/10/27 02:04:41;;;;;;;19.55;7.85;;;;;;;3.48;100.00;95780.78;5107037;28;20130;-65
2021/10/27 02:07:08;;;;;;;16.77;7.57;;;;;;;3.59;100.00;95802.81;5112308;27;20404;-65
2021/10/27 02:09:37;;;;;;;17.98;9.63;;;;;;;3.55;100.00;95802.34;5109299;28;20507;-66
2021/10/27 02:12:05;;;;;;;18.92;9.00;;;;;;;3.53;100.00;95788.84;5107553;28;20940;-65
2021/10/27 02:14:32;;;;;;;20.13;10.85;;;;;;;3.59;100.00;95798.47;5103094;28;20035;-66
2021/10/27 02:16:59;;;;;;;23.75;11.85;;;;;;;3.53;100.00;95801.72;5110826;28;20057;-66
2021/10/27 02:19:26;;;;;;;19.08;10.68;;;;;;;3.33;100.00;95775.50;5106491;28;20031;-66
2021/10/27 02:21:53;;;;;;;21.48;11.05;;;;;;;3.35;100.00;95796.75;5106622;28;20063;-66
2021/10/27 02:24:20;;;;;;;21.98;10.82;;;;;;;3.43;100.00;95803.66;5095784;28;20093;-65
2021/10/27 02:26:47;;;;;;;22.35;10.27;;;;;;;3.47;100.00;95810.06;5092475;28;20735;-66
2021/10/27 02:29:14;;;;;;;22.42;11.40;;;;;;;3.51;100.00;95806.22;5106033;28;20040;-66
2021/10/27 02:31:41;;;;;;;19.83;10.52;;;;;;;3.54;100.00;95810.25;5112054;27;20044;-65
2021/10/27 02:34:08;;;;;;;17.50;9.30;;;;;;;3.53;100.00;95809.44;5098323;27;20478;-66
2021/10/27 02:36:34;;;;;;;20.50;9.68;;;;;;;3.51;100.00;95808.81;5107811;27;20067;-66
2021/10/27 02:39:01;;;;;;;19.77;10.00;;;;;;;3.52;100.00;95810.41;5116000;27;20431;-66
2021/10/27 02:41:28;;;;;;;17.02;8.50;;;;;;;3.47;100.00;95810.06;5109134;27;20043;-66
2021/10/27 02:43:55;;;;;;;18.10;9.20;;;;;;;3.27;100.00;95807.03;5108884;27;20048;-66
2021/10/27 02:46:22;;;;;;;20.98;9.75;;;;;;;3.30;100.00;95808.50;5111305;27;20600;-65
2021/10/27 02:48:49;;;;;;;18.55;10.57;;;;;;;3.05;100.00;95821.34;5109159;27;20080;-65
2021/10/27 02:51:17;;;;;;;26.88;12.15;;;;;;;2.98;100.00;95830.66;5111188;27;20054;-65
2021/10/27 02:53:43;;;;;;;32.17;13.43;;;;;;;2.92;100.00;95815.84;5105983;28;20043;-66
2021/10/27 02:56:10;;;;;;;24.90;12.65;;;;;;;2.86;100.00;95812.97;5109154;27;20054;-65
2021/10/27 02:58:37;;;;;;;22.75;13.77;;;;;;;2.74;100.00;95819.38;5109044;27;20100;-65
2021/10/27 03:01:05;;;;;;;25.00;12.10;;;;;;;2.61;100.00;95793.28;5110000;27;20046;-66
2021/10/27 03:03:32;;;;;;;18.30;11.60;;;;;;;2.77;100.00;95808.75;5105844;27;20040;-66
2021/10/27 03:05:59;;;;;;;23.85;11.02;;;;;;;2.87;100.00;95814.56;5107735;27;20052;-67
2021/10/27 03:08:26;;;;;;;33.95;12.73;;;;;;;2.92;100.00;95826.13;5114787;27;20040;-65
2021/10/27 03:10:53;;;;;;;30.42;11.63;;;;;;;2.83;100.00;95823.56;5108059;27;20068;-65
2021/10/27 03:13:20;;;;;;;34.65;15.73;;;;;;;2.81;100.00;95828.06;5111239;27;20051;-65
2021/10/27 03:15:47;;;;;;;32.60;15.93;;;;;;;2.86;100.00;95823.25;5107145;28;20060;-66
2021/10/27 03:18:14;;;;;;;32.35;13.52;;;;;;;2.94;100.00;95826.81;5106040;28;20097;-66
2021/10/27 03:20:41;;;;;;;27.58;13.32;;;;;;;2.92;100.00;95831.28;5089027;28;20074;-65
2021/10/27 03:23:08;;;;;;;25.23;13.50;;;;;;;2.94;100.00;95831.94;5107625;27;20047;-65
2021/10/27 03:25:35;;;;;;;30.20;12.70;;;;;;;2.86;100.00;95825.81;5107112;27;20043;-65
2021/10/27 03:28:02;;;;;;;24.02;12.43;;;;;;;2.95;100.00;95838.69;5109774;27;20100;-65
2021/10/27 03:30:30;;;;;;;23.63;12.95;;;;;;;2.73;100.00;95799.75;5094539;27;20047;-66
2021/10/27 03:32:57;;;;;;;19.27;12.10;;;;;;;3.04;100.00;95835.16;5106023;27;20416;-65
2021/10/27 03:35:25;;;;;;;28.38;12.10;;;;;;;3.11;100.00;95831.00;5108002;27;20031;-65
2021/10/27 03:37:51;;;;;;;25.40;11.85;;;;;;;3.13;100.00;95828.25;5087912;27;20054;-66
2021/10/27 03:40:18;;;;;;;26.55;11.98;;;;;;;3.18;100.00;95839.69;5103745;27;20051;-66
2021/10/27 03:42:45;;;;;;;20.95;11.90;;;;;;;3.14;100.00;95840.97;5104580;27;20043;-65
2021/10/27 03:45:12;;;;;;;25.85;13.13;;;;;;;3.11;100.00;95833.56;5107028;27;20047;-65
2021/10/27 03:47:39;;;;;;;22.90;11.05;;;;;;;3.06;100.00;95838.38;5105548;28;20039;-64
2021/10/27 03:50:08;;;;;;;28.65;14.15;;;;;;;3.00;100.00;95833.88;5105398;27;20043;-65
2021/10/27 03:52:35;;;;;;;28.35;14.00;;;;;;;3.01;100.00;95845.78;5103665;28;20052;-65
2021/10/27 03:55:02;;;;;;;25.42;12.63;;;;;;;3.00;100.00;95844.19;5110310;27;20047;-65
2021/10/27 03:57:29;;;;;;;29.95;13.52;;;;;;;2.90;100.00;95838.34;5109606;27;20039;-65
2021/10/27 03:59:56;;;;;;;25.08;12.82;;;;;;;2.93;100.00;95840.63;5105841;27;20039;-65
2021/10/27 04:02:22;;;;;;;24.70;11.85;;;;;;;2.86;100.00;95823.25;5106709;27;20058;-65
2021/10/27 04:04:55;;;;;;;22.02;10.93;;;;;;;2.91;100.00;95834.84;5106848;27;20488;-66
2021/10/27 04:07:21;;;;;;;28.33;11.45;;;;;;;2.92;100.00;95833.84;5111091;27;20092;-66
2021/10/27 04:09:48;;;;;;;21.55;10.55;;;;;;;2.88;100.00;95830.78;5110338;27;20035;-66
2021/10/27 04:12:15;;;;;;;27.17;11.50;;;;;;;2.90;100.00;95838.34;5108410;27;20043;-66
2021/10/27 04:14:42;;;;;;;29.83;11.98;;;;;;;2.94;100.00;95835.31;5106225;27;20035;-65
2021/10/27 04:17:08;;;;;;;21.42;10.68;;;;;;;2.81;100.00;95830.63;5087941;28;20130;-65
2021/10/27 04:19:35;;;;;;;19.13;10.25;;;;;;;2.90;100.00;95843.50;5094244;28;20044;-65
2021/10/27 04:22:02;;;;;;;23.38;11.93;;;;;;;2.97;100.00;95840.16;5092901;27;20096;-65
2021/10/27 04:24:29;;;;;;;25.55;11.57;;;;;;;3.03;100.00;95833.56;5105128;27;20500;-66
2021/10/27 04:26:56;;;;;;;24.27;9.93;;;;;;;3.03;100.00;95838.72;5106754;27;20071;-66
2021/10/27 04:29:23;;;;;;;19.35;10.45;;;;;;;3.07;100.00;95837.44;5108589;27;20110;-66
2021/10/27 04:31:49;;;;;;;22.60;9.27;;;;;;;3.13;100.00;95844.50;5105346;27;20104;-66
2021/10/27 04:34:17;;;;;;;21.05;11.95;;;;;;;3.15;100.00;95842.59;5107360;27;20039;-66
2021/10/27 04:36:43;;;;;;;13.32;8.65;;;;;;;3.21;100.00;95843.72;5102189;27;20044;-65
2021/10/27 04:39:10;;;;;;;21.83;10.57;;;;;;;3.29;100.00;95845.50;5104635;28;20040;-66
2021/10/27 04:41:38;;;;;;;27.50;11.00;;;;;;;3.33;99.40;95839.06;5105232;27;20055;-65
2021/10/27 04:44:04;;;;;;;17.15;9.32;;;;;;;3.36;98.96;95849.03;5108459;27;20473;-66
2021/10/27 04:46:31;;;;;;;19.00;8.98;;;;;;;3.42;98.82;95845.81;5105953;27;20059;-66
2021/10/27 04:48:58;;;;;;;19.15;10.77;;;;;;;3.38;98.42;95849.69;5106600;27;21005;-66
2021/10/27 04:51:25;;;;;;;18.45;8.77;;;;;;;3.38;98.25;95853.03;5107078;27;20043;-66
2021/10/27 04:53:51;;;;;;;25.45;12.55;;;;;;;3.41;97.81;95862.25;5104190;27;20097;-65
2021/10/27 04:56:18;;;;;;;25.08;11.90;;;;;;;3.31;97.64;95852.09;5105594;27;20040;-66
2021/10/27 04:58:45;;;;;;;23.60;11.52;;;;;;;3.32;97.65;95853.69;5104388;27;20039;-66
2021/10/27 05:01:12;;;;;;;20.75;9.50;;;;;;;3.20;97.89;95850.63;5106010;27;20101;-66
2021/10/27 05:03:41;;;;;;;17.02;11.30;;;;;;;3.24;97.85;95862.22;5104285;27;20611;-65
2021/10/27 05:06:09;;;;;;;27.88;13.65;;;;;;;3.25;97.94;95868.97;5107350;27;20048;-66
2021/10/27 05:08:36;;;;;;;30.88;11.75;;;;;;;3.28;97.78;95874.75;5104209;28;20447;-65
2021/10/27 05:11:03;;;;;;;29.25;14.50;;;;;;;3.29;97.74;95873.81;5107099;27;20062;-65
2021/10/27 05:13:30;;;;;;;25.15;12.73;;;;;;;3.31;97.36;95871.88;5105625;27;20779;-65
2021/10/27 05:15:57;;;;;;;30.30;14.18;;;;;;;3.32;97.42;95879.44;5105208;27;20044;-66
2021/10/27 05:18:26;;;;;;;25.42;12.68;;;;;;;3.23;97.92;95870.91;5105813;27;20043;-66
2021/10/27 05:20:53;;;;;;;23.05;11.77;;;;;;;3.31;97.98;95871.88;5105472;27;20043;-66
2021/10/27 05:23:20;;;;;;;19.98;9.85;;;;;;;3.32;98.05;95879.44;5105270;27;20036;-66
2021/10/27 05:25:48;;;;;;;24.73;10.80;;;;;;;3.36;97.94;95885.88;5104393;27;20092;-65
2021/10/27 05:28:15;;;;;;;26.98;12.23;;;;;;;3.41;98.11;95899.09;5109040;27;20058;-66
2021/10/27 05:30:41;;;;;;;23.23;12.73;;;;;;;3.44;98.04;95895.41;5106875;27;20396;-66
2021/10/27 05:33:08;;;;;;;19.02;10.10;;;;;;;3.32;98.23;95882.03;5111540;27;20615;-65
2021/10/27 05:35:35;;;;;;;21.00;11.52;;;;;;;3.40;98.46;95892.34;5103961;28;20097;-66
2021/10/27 05:38:02;;;;;;;27.48;12.15;;;;;;;3.42;98.64;95895.56;5102908;27;20035;-66
2021/10/27 05:40:29;;;;;;;34.40;15.60;;;;;;;3.45;98.72;95899.56;5090747;27;20043;-65
2021/10/27 05:42:56;;;;;;;83.95;24.85;;;;;;;3.60;98.67;95908.28;5102107;28;20055;-65
2021/10/27 05:45:26;;;;;;;51.95;17.05;;;;;;;3.58;98.27;95910.22;5104866;27;20040;-66
2021/10/27 05:47:57;;;;;;;40.55;17.13;;;;;;;3.62;98.38;95911.50;5087695;28;20827;-65
2021/10/27 05:50:38;;;;;;;37.72;15.05;;;;;;;3.68;98.32;95914.41;5104313;27;20048;-66
2021/10/27 05:55:50;;;;;;;27.77;12.48;;;;;;;3.73;98.44;95914.75;5104271;27;20048;-66
2021/10/27 05:58:18;;;;;;;23.83;11.18;;;;;;;3.59;97.75;95922.13;5110435;27;20050;-66
2021/10/27 06:00:46;;;;;;;24.83;11.15;;;;;;;3.60;97.87;95938.38;5101529;28;20100;-66
2021/10/27 06:03:13;;;;;;;16.17;9.98;;;;;;;3.50;98.06;95925.66;5108605;27;20474;-66
2021/10/27 06:05:40;;;;;;;21.05;10.98;;;;;;;3.50;98.61;95930.81;5103806;28;20043;-66
2021/10/27 06:08:08;;;;;;;16.80;8.93;;;;;;;3.54;98.76;95929.53;5105520;28;20424;-66
2021/10/27 06:10:35;;;;;;;23.92;11.48;;;;;;;3.58;98.65;95956.59;5103015;28;20059;-66
2021/10/27 06:13:05;;;;;;;17.40;9.63;;;;;;;3.68;99.29;95955.63;5104962;28;20101;-66
2021/10/27 06:15:33;;;;;;;17.17;10.02;;;;;;;3.67;99.29;95954.00;5102636;28;20493;-66
2021/10/27 06:18:01;;;;;;;16.75;9.05;;;;;;;3.76;99.44;95953.06;5101484;28;20067;-66
2021/10/27 06:20:30;;;;;;;24.58;12.77;;;;;;;3.88;100.00;95959.50;5103510;28;20063;-67
2021/10/27 06:22:57;;;;;;;18.67;10.77;;;;;;;4.02;100.00;95964.00;5102173;28;20048;-65
2021/10/27 06:25:25;;;;;;;25.48;12.88;;;;;;;4.08;99.60;95961.75;5103215;28;20112;-66
2021/10/27 06:28:00;;;;;;;23.00;11.82;;;;;;;4.16;99.84;95969.47;5103787;28;20122;-66
2021/10/27 06:30:41;;;;;;;28.23;13.77;;;;;;;4.23;99.24;95962.69;5101200;28;20043;-66
2021/10/27 06:33:30;;;;;;;17.50;8.77;;;;;;;4.21;98.53;95962.06;5098901;28;20067;-67
2021/10/27 06:36:08;;;;;;;19.25;9.57;;;;;;;4.30;99.12;95975.75;5095877;28;20055;-66
2021/10/27 06:38:53;;;;;;;19.02;9.90;;;;;;;4.39;98.69;95973.00;5098856;28;20043;-66
2021/10/27 06:46:58;;;;;;;21.67;11.50;;;;;;;4.83;96.81;95970.97;5102002;28;20055;-66
2021/10/27 06:49:25;;;;;;;15.52;9.15;;;;;;;4.87;96.24;95977.41;5100268;28;20043;-67
2021/10/27 06:51:52;;;;;;;19.05;10.15;;;;;;;4.94;95.13;95966.22;5080397;28;20051;-66
2021/10/27 06:54:18;;;;;;;22.33;12.23;;;;;;;5.05;94.04;95979.75;5097297;28;20081;-66
2021/10/27 06:56:45;;;;;;;16.25;8.90;;;;;;;5.08;93.78;95985.38;5099622;28;20532;-66
2021/10/27 06:59:20;;;;;;;18.92;11.02;;;;;;;5.10;94.42;95957.63;5082925;28;20047;-66
2021/10/27 09:38:57;;;;;;;11.52;6.53;;;;;;;11.93;62.83;95926.22;5053770;28;20037;-75
2021/10/27 10:07:02;;;;;;;10.93;7.10;;;;;;;15.01;50.87;95892.31;5038580;28;20810;-74
2021/10/27 10:09:29;;;;;;;13.15;7.53;;;;;;;15.57;49.58;95886.50;5053069;28;20052;-74
2021/10/27 10:11:56;;;;;;;8.40;6.53;;;;;;;16.03;46.86;95887.31;5059625;28;20061;-75
2021/10/27 10:14:23;;;;;;;8.93;6.88;;;;;;;16.17;46.21;95880.69;5067564;28;20569;-74
2021/10/27 10:16:57;;;;;;;9.57;6.05;;;;;;;16.03;46.81;95884.69;5066583;27;20041;-75
2021/10/27 10:19:31;;;;;;;7.53;5.72;;;;;;;15.98;46.64;95876.72;5064645;28;20414;-76
2021/10/27 10:21:58;;;;;;;10.70;7.65;;;;;;;16.22;47.48;95872.88;5063974;27;20102;-76
2021/10/27 10:24:31;;;;;;;7.85;5.63;;;;;;;16.25;46.55;95866.34;5062071;28;20048;-74
2021/10/27 10:27:12;;;;;;;8.38;6.78;;;;;;;16.38;47.38;95854.69;5063858;27;20060;-74
2021/10/27 10:29:50;;;;;;;8.18;5.65;;;;;;;16.35;45.43;95865.69;5065709;28;20397;-75
2021/10/27 10:32:18;;;;;;;9.95;7.30;;;;;;;15.88;47.29;95871.28;5048683;28;20530;-75
2021/10/27 10:34:50;;;;;;;10.95;6.28;;;;;;;16.72;45.15;95862.50;5049243;28;20060;-75
2021/10/27 10:37:38;;;;;;;13.93;6.60;;;;;;;17.73;42.22;95862.00;5049148;28;20049;-72
2021/10/27 11:02:54;;;;;;;8.93;5.95;;;;;;;19.79;36.84;95836.56;5055339;28;20052;-73
2021/10/27 11:37:41;;;;;;;7.25;5.82;;;;;;;20.67;35.09;95805.47;5046259;28;20076;-72
2021/10/27 11:40:37;;;;;;;22.80;10.18;;;;;;;20.24;36.41;95808.50;5045692;28;20044;-72
2021/10/27 11:45:53;;;;;;;8.80;6.50;;;;;;;19.39;37.64;95794.00;5043542;28;20685;-73
2021/10/27 11:51:13;;;;;;;9.50;6.32;;;;;;;20.41;36.09;95802.91;5046868;28;20040;-73
2021/10/27 11:53:47;;;;;;;9.25;6.82;;;;;;;20.54;35.20;95796.25;5045808;28;20044;-72
2021/10/27 11:56:18;;;;;;;11.85;7.38;;;;;;;20.97;34.21;95793.97;5046305;28;20783;-72
2021/10/27 11:58:49;;;;;;;9.23;6.05;;;;;;;20.75;33.88;95792.47;5042590;28;20056;-72
2021/10/27 12:01:30;;;;;;;7.15;5.53;;;;;;;20.78;34.19;95789.28;5045540;28;20040;-73
2021/10/27 12:03:58;;;;;;;9.13;6.55;;;;;;;20.02;36.48;95780.53;5050146;28;20142;-71
2021/10/27 12:19:22;;;;;;;56.03;12.38;;;;;;;22.81;32.16;95770.31;5048047;28;20118;-72
2021/10/27 12:21:51;;;;;;;7.70;5.75;;;;;;;23.44;30.15;95771.88;5045360;28;20044;-72
2021/10/27 12:24:21;;;;;;;9.73;5.60;;;;;;;24.15;28.82;95779.75;5051801;28;20045;-72
2021/10/27 12:26:58;;;;;;;6.75;5.00;;;;;;;24.35;28.11;95767.13;5047105;28;20474;-72
2021/10/27 12:29:26;;;;;;;6.22;5.40;;;;;;;21.84;32.09;95780.13;5043533;28;20055;-72
2021/10/27 12:32:12;;;;;;;8.43;5.60;;;;;;;21.19;32.78;95775.03;5045773;28;20033;-72
2021/10/27 12:34:50;;;;;;;37.80;11.55;;;;;;;22.29;30.77;95769.34;5046698;28;20044;-73
2021/10/27 12:37:33;;;;;;;26.35;8.02;;;;;;;23.29;29.15;95764.13;5044993;28;20045;-72
2021/10/27 12:40:32;;;;;;;269.27;35.00;;;;;;;23.14;31.39;95767.78;5053437;28;20048;-72
2021/10/27 12:43:39;;;;;;;9.80;4.60;;;;;;;21.90;31.64;95776.34;5043555;28;20049;-67
2021/10/27 12:46:21;;;;;;;5.50;4.03;;;;;;;22.74;31.16;95763.78;5044698;28;20534;-68
2021/10/27 12:48:49;;;;;;;6.70;4.50;;;;;;;23.16;30.02;95759.53;5031868;28;20076;-68
2021/10/27 12:51:16;;;;;;;7.90;4.13;;;;;;;23.52;28.66;95751.03;5043312;28;20044;-69
2021/10/27 12:53:51;;;;;;;5.38;3.75;;;;;;;23.53;28.33;95742.72;5041874;28;20074;-68
2021/10/27 12:56:24;;;;;;;5.20;3.95;;;;;;;23.87;28.42;95767.47;5046593;28;20060;-68
2021/10/27 12:59:04;;;;;;;6.90;3.65;;;;;;;23.41;29.14;95767.13;5044335;28;20490;-67
2021/10/27 13:01:44;;;;;;;5.72;3.65;;;;;;;23.76;26.49;95762.28;5052895;28;20033;-66
2021/10/27 13:04:40;;;;;;;6.30;3.55;;;;;;;23.79;28.08;95761.72;5041005;28;20146;-66
2021/10/27 13:07:21;;;;;;;9.20;4.13;;;;;;;23.18;27.46;95768.00;5042868;28;20041;-67
2021/10/27 13:33:14;;;;;;;8.10;4.85;;;;;;;23.31;27.57;95751.31;5042144;28;20040;-68
2021/10/27 13:35:41;;;;;;;6.78;4.30;;;;;;;23.29;27.40;95764.91;5042676;28;20033;-68
2021/10/27 13:38:09;;;;;;;8.25;3.88;;;;;;;23.37;27.43;95763.47;5045082;28;20052;-67
2021/10/27 13:40:42;;;;;;;7.10;3.78;;;;;;;23.43;27.54;95764.97;5044516;28;20048;-67
2021/10/27 14:07:30;;;;;;;6.93;3.83;;;;;;;23.07;28.37;95746.91;5051073;28;20137;-68
2021/10/27 14:10:07;;;;;;;6.13;3.65;;;;;;;21.79;30.23;95743.06;5050908;28;20037;-67
2021/10/27 14:17:50;;;;;;;6.70;4.80;;;;;;;21.91;30.05;95743.47;5054704;28;20036;-69
2021/10/27 14:22:15;;;;;;;6.80;4.90;;;;;;;20.47;32.72;95750.75;5049535;28;20056;-69
2021/10/27 14:39:57;;;;;;;7.25;4.35;;;;;;;21.71;32.38;95756.91;5055320;28;20053;-72
2021/10/27 14:48:21;;;;;;;10.82;6.43;;;;;;;21.85;30.26;95759.69;5043437;28;20041;-73
2021/10/27 14:59:18;;;;;;;13.35;6.65;;;;;;;20.98;31.91;95774.38;5049893;28;20521;-70
2021/10/27 15:19:40;;;;;;;20.73;10.55;;;;;;;18.84;37.90;95777.78;5043131;28;20094;-71
2021/10/27 15:21:16;;;;;;;23.58;12.32;;;;;;;18.14;40.38;95772.72;5041001;28;20118;-71
2021/10/27 15:24:02;;;;;;;32.95;14.30;;;;;;;17.80;41.07;95769.56;5045116;28;20128;-71
2021/10/27 15:37:06;;;;;;;11.65;6.18;;;;;;;15.83;44.00;95786.13;5050432;28;20045;-71
2021/10/27 15:53:01;;;;;;;51.67;24.05;;;;;;;14.44;48.02;95796.00;5043310;28;20045;-71
2021/10/27 15:55:28;;;;;;;31.33;15.88;;;;;;;14.23;47.98;95793.97;5040651;28;20052;-70
2021/10/27 15:57:56;;;;;;;19.38;8.82;;;;;;;14.05;48.92;95798.31;5071731;28;20045;-71
2021/10/27 16:00:23;;;;;;;18.23;8.32;;;;;;;13.96;49.56;95805.72;5041851;28;20087;-70
2021/10/27 16:02:50;;;;;;;11.95;7.15;;;;;;;13.78;50.26;95805.81;5050297;28;20079;-70
2021/10/27 16:05:18;;;;;;;15.15;5.65;;;;;;;13.65;51.14;95798.16;5043144;28;20062;-69
2021/10/27 16:07:47;;;;;;;9.27;5.25;;;;;;;13.55;50.81;95815.22;5059371;28;20494;-69
2021/10/27 16:10:16;;;;;;;11.88;6.40;;;;;;;13.13;53.38;95820.44;5044093;28;20521;-70
2021/10/27 16:12:44;;;;;;;9.98;5.70;;;;;;;11.94;57.36;95825.19;5042102;28;20120;-70
2021/10/27 16:15:26;;;;;;;17.98;10.38;;;;;;;11.62;58.32;95818.22;5042284;28;20044;-69
2021/10/27 16:17:53;;;;;;;30.38;14.00;;;;;;;11.64;59.21;95829.22;5041191;28;20045;-69
2021/10/27 16:20:20;;;;;;;28.88;14.35;;;;;;;11.77;59.40;95830.13;5041523;28;20060;-69
2021/10/27 16:22:47;;;;;;;21.05;12.55;;;;;;;11.98;57.54;95835.00;5043367;28;20040;-69
2021/10/27 16:25:15;;;;;;;20.20;9.70;;;;;;;12.00;57.97;95838.19;5044177;28;20131;-68
2021/10/27 16:27:46;;;;;;;54.53;22.55;;;;;;;12.01;58.41;95847.63;5043949;28;20130;-69
2021/10/27 16:30:13;;;;;;;189.40;76.45;;;;;;;12.07;58.17;95848.59;5041773;28;20049;-69
2021/10/27 16:40:37;;;;;;;138.65;55.17;;;;;;;10.87;63.15;95857.97;5043837;27;20925;-69
2021/10/27 16:43:04;;;;;;;95.40;39.92;;;;;;;10.74;64.25;95878.88;5051103;28;20038;-70
2021/10/27 16:45:32;;;;;;;56.22;26.42;;;;;;;10.73;63.29;95872.06;5038010;28;20053;-70
2021/10/27 16:48:00;;;;;;;57.65;24.80;;;;;;;10.80;62.81;95872.81;5036644;28;20053;-70
2021/10/27 16:50:28;;;;;;;46.22;21.05;;;;;;;10.77;63.54;95873.25;5037844;28;20454;-71
2021/10/27 16:52:57;;;;;;;38.00;17.00;;;;;;;10.65;63.98;95880.13;5035878;28;20053;-70
2021/10/27 16:55:24;;;;;;;33.47;16.33;;;;;;;10.52;65.11;95880.94;5035683;28;20057;-70
2021/10/27 16:57:54;;;;;;;34.60;16.05;;;;;;;10.25;67.07;95890.59;5035764;28;20063;-70
2021/10/27 17:00:24;;;;;;;24.48;13.85;;;;;;;10.31;65.28;95889.81;5037914;28;20057;-70
2021/10/27 17:02:51;;;;;;;37.28;17.42;;;;;;;10.37;65.47;95893.41;5036334;28;20159;-70
2021/10/27 17:05:18;;;;;;;32.72;15.57;;;;;;;10.35;66.60;95896.19;5039190;28;20057;-70
2021/10/27 17:07:45;;;;;;;54.45;24.77;;;;;;;10.29;66.58;95902.19;5035415;28;20113;-70
2021/10/27 17:10:15;;;;;;;91.82;32.95;;;;;;;10.30;66.49;95904.59;5036936;28;20049;-70
2021/10/27 17:12:43;;;;;;;140.05;47.55;;;;;;;10.29;65.20;95908.19;5051971;28;20052;-70
2021/10/27 17:15:12;;;;;;;59.17;22.80;;;;;;;10.30;64.10;95914.22;5036497;28;20107;-70
2021/10/27 17:17:41;;;;;;;41.28;20.98;;;;;;;10.22;63.87;95911.81;5038183;28;20052;-71
2021/10/27 17:20:10;;;;;;;39.60;19.23;;;;;;;10.17;63.37;95924.63;5036534;28;20141;-69
2021/10/27 17:22:39;;;;;;;34.13;17.95;;;;;;;10.01;64.90;95924.06;5035876;28;20411;-69
2021/10/27 17:25:08;;;;;;;26.40;15.15;;;;;;;9.72;67.17;95918.22;5035043;28;20718;-69
2021/10/27 17:27:38;;;;;;;22.27;13.45;;;;;;;9.49;67.78;95912.56;5035758;28;20422;-69
2021/10/27 17:30:11;;;;;;;23.92;13.20;;;;;;;9.44;67.02;95920.97;5036536;28;20041;-68
2021/10/27 17:32:40;;;;;;;20.58;13.30;;;;;;;9.35;67.60;95927.34;5037781;28;20045;-69
2021/10/27 17:35:16;;;;;;;24.13;12.82;;;;;;;9.25;67.96;95922.50;5037161;28;20049;-68
2021/10/27 17:37:47;;;;;;;16.92;10.77;;;;;;;9.12;69.01;95922.47;5037492;28;20037;-68
2021/10/27 17:40:31;;;;;;;16.63;9.25;;;;;;;9.02;69.23;95922.84;5049200;28;20092;-68
2021/10/27 17:43:00;;;;;;;14.18;8.60;;;;;;;8.90;68.77;95929.59;5035905;28;20047;-68
2021/10/27 17:45:37;;;;;;;15.18;8.70;;;;;;;8.78;69.96;95937.09;5035465;28;20067;-68
2021/10/27 17:48:15;;;;;;;15.05;8.13;;;;;;;8.67;69.95;95929.88;5035613;28;20041;-67
2021/10/27 17:58:48;;;;;;;10.52;6.43;;;;;;;8.44;71.62;95933.50;5022318;28;20038;-68
2021/10/27 18:01:18;;;;;;;10.52;6.47;;;;;;;8.41;71.57;95928.69;5014885;28;20514;-68
2021/10/27 18:03:46;;;;;;;12.15;5.93;;;;;;;8.39;70.90;95941.03;5022752;28;20045;-68
2021/10/27 18:06:14;;;;;;;9.90;6.57;;;;;;;8.32;70.88;95948.78;5021759;28;20044;-68
2021/10/27 18:08:44;;;;;;;10.13;5.97;;;;;;;8.23;70.55;95942.94;5022256;28;20046;-68
2021/10/27 18:11:15;;;;;;;11.10;5.82;;;;;;;8.12;70.72;95946.06;5023067;28;20041;-68
2021/10/27 18:13:46;;;;;;;11.40;6.47;;;;;;;8.02;70.78;95948.16;5039736;28;20049;-68
2021/10/27 18:16:19;;;;;;;10.00;6.35;;;;;;;7.95;71.46;95948.09;5021645;28;20037;-68
2021/10/27 18:24:25;;;;;;;17.38;8.35;;;;;;;7.46;75.13;95954.81;5020520;28;20042;-68
2021/10/27 18:40:41;;;;;;;15.52;8.32;;;;;;;7.61;76.99;95969.53;5037356;28;20050;-67